createdAt,value
2024-03-25T00:00:04.174Z,87523.00
2024-03-25T00:01:04.167Z,87523.00
2024-03-25T00:02:04.174Z,87526.00
2024-03-25T00:03:04.191Z,87528.00
2024-03-25T00:04:04.183Z,87529.00
2024-03-25T00:05:04.188Z,87527.00
2024-03-25T00:06:04.161Z,87524.00
2024-03-25T00:07:04.186Z,87522.00
2024-03-25T00:08:04.165Z,87520.00
2024-03-25T00:09:04.222Z,87520.00
2024-03-25T00:10:04.183Z,87521.00
2024-03-25T00:11:04.181Z,87523.00
2024-03-25T00:12:04.187Z,87527.00
2024-03-25T00:13:04.197Z,87528.00
2024-03-25T00:14:04.192Z,87533.00
2024-03-25T00:15:04.189Z,87534.00
2024-03-25T00:16:04.181Z,87535.00
2024-03-25T00:17:04.190Z,87534.00
2024-03-25T00:18:04.182Z,87534.00
2024-03-25T00:19:04.204Z,87531.00
2024-03-25T00:20:04.189Z,87527.00
2024-03-25T00:21:04.209Z,87524.00
2024-03-25T00:22:04.226Z,87522.00
2024-03-25T00:23:04.208Z,87520.00
2024-03-25T00:24:04.215Z,87522.00
2024-03-25T00:25:04.204Z,87523.00
2024-03-25T00:26:04.222Z,87527.00
2024-03-25T00:27:04.223Z,87528.00
2024-03-25T00:28:04.240Z,87529.00
2024-03-25T00:29:04.303Z,87527.00
2024-03-25T00:30:04.370Z,87522.00
2024-03-25T00:31:04.463Z,87519.00
2024-03-25T00:32:04.518Z,87517.00
2024-03-25T00:33:04.585Z,87517.00
2024-03-25T00:34:04.635Z,87518.00
2024-03-25T00:35:04.745Z,87519.00
2024-03-25T00:36:04.799Z,87514.00
2024-03-25T00:37:04.885Z,87512.00
2024-03-25T00:38:04.894Z,87508.00
2024-03-25T00:39:04.960Z,87504.00
2024-03-25T00:40:05.028Z,87507.00
2024-03-25T00:41:05.080Z,87505.00
2024-03-25T00:42:05.136Z,87509.00
2024-03-25T00:43:05.198Z,87506.00
2024-03-25T00:44:05.245Z,87505.00
2024-03-25T00:45:05.309Z,87503.00
2024-03-25T00:46:05.347Z,87503.00
2024-03-25T00:47:05.413Z,87501.00
2024-03-25T00:48:05.488Z,87502.00
2024-03-25T00:49:05.527Z,87506.00
2024-03-25T00:50:05.588Z,87506.00
2024-03-25T00:51:05.659Z,87503.00
2024-03-25T00:52:05.696Z,87502.00
2024-03-25T00:53:05.770Z,87500.00
2024-03-25T00:54:05.821Z,87497.00
2024-03-25T00:55:05.887Z,87495.00
2024-03-25T00:56:05.934Z,87493.00
2024-03-25T00:57:06.001Z,87492.00
2024-03-25T00:58:06.046Z,87491.00
2024-03-25T00:59:06.089Z,87492.00
2024-03-25T01:00:06.128Z,87495.00
2024-03-25T01:01:06.199Z,87496.00
2024-03-25T01:02:06.252Z,87497.00
2024-03-25T01:03:06.312Z,87498.00
2024-03-25T01:04:06.373Z,87497.00
2024-03-25T01:05:06.398Z,87497.00
2024-03-25T01:06:06.437Z,87498.00
2024-03-25T01:07:06.479Z,87496.00
2024-03-25T01:08:06.522Z,87495.00
2024-03-25T01:09:06.587Z,87493.00
2024-03-25T01:10:06.629Z,87493.00
2024-03-25T01:11:06.685Z,87492.00
2024-03-25T01:12:06.727Z,87492.00
2024-03-25T01:13:06.780Z,87492.00
2024-03-25T01:14:06.851Z,87489.00
2024-03-25T01:15:06.903Z,87492.00
2024-03-25T01:16:06.930Z,87489.00
2024-03-25T01:17:06.973Z,87491.00
2024-03-25T01:18:07.054Z,87489.00
2024-03-25T01:19:07.036Z,87490.00
2024-03-25T01:20:07.029Z,87490.00
2024-03-25T01:21:07.035Z,87494.00
2024-03-25T01:22:07.032Z,87496.00
2024-03-25T01:23:07.051Z,87497.00
2024-03-25T01:24:07.053Z,87499.00
2024-03-25T01:25:07.044Z,87495.00
2024-03-25T01:26:07.051Z,87491.00
2024-03-25T01:27:07.052Z,87490.00
2024-03-25T01:28:07.044Z,87488.00
2024-03-25T01:29:07.057Z,87492.00
2024-03-25T01:30:07.040Z,87492.00
2024-03-25T01:31:07.053Z,87494.00
2024-03-25T01:32:07.054Z,87495.00
2024-03-25T01:33:07.062Z,87495.00
2024-03-25T01:34:07.061Z,87493.00
2024-03-25T01:35:07.073Z,87491.00
2024-03-25T01:36:07.046Z,87492.00
2024-03-25T01:37:07.100Z,87493.00
2024-03-25T01:38:07.133Z,87494.00
2024-03-25T01:39:07.149Z,87491.00
2024-03-25T01:40:07.195Z,87493.00
2024-03-25T01:41:07.213Z,87492.00
2024-03-25T01:42:07.223Z,87491.00
2024-03-25T01:43:07.268Z,87493.00
2024-03-25T01:44:07.290Z,87491.00
2024-03-25T01:45:07.325Z,87490.00
2024-03-25T01:46:07.366Z,87489.00
2024-03-25T01:47:07.379Z,87492.00
2024-03-25T01:48:07.363Z,87490.00
2024-03-25T01:49:07.374Z,87488.00
2024-03-25T01:50:07.400Z,87489.00
2024-03-25T01:51:07.428Z,87491.00
2024-03-25T01:52:07.439Z,87492.00
2024-03-25T01:53:07.466Z,87492.00
2024-03-25T01:54:07.468Z,87492.00
2024-03-25T01:55:07.477Z,87496.00
2024-03-25T01:56:07.475Z,87494.00
2024-03-25T01:57:07.479Z,87493.00
2024-03-25T01:58:07.478Z,87494.00
2024-03-25T01:59:07.487Z,87490.00
2024-03-25T02:00:07.488Z,87489.00
2024-03-25T02:01:07.509Z,87485.00
2024-03-25T02:02:07.483Z,87483.00
2024-03-25T02:03:07.488Z,87481.00
2024-03-25T02:04:07.492Z,87479.00
2024-03-25T02:05:07.496Z,87479.00
2024-03-25T02:06:07.496Z,87479.00
2024-03-25T02:07:07.498Z,87478.00
2024-03-25T02:08:07.493Z,87480.00
2024-03-25T02:09:07.587Z,87479.00
2024-03-25T02:10:07.513Z,87483.00
2024-03-25T02:11:07.503Z,87485.00
2024-03-25T02:12:07.501Z,87488.00
2024-03-25T02:13:07.497Z,87488.00
2024-03-25T02:14:07.501Z,87488.00
2024-03-25T02:15:07.509Z,87487.00
2024-03-25T02:16:07.502Z,87485.00
2024-03-25T02:17:07.506Z,87488.00
2024-03-25T02:18:07.514Z,87489.00
2024-03-25T02:19:07.511Z,87491.00
2024-03-25T02:20:07.529Z,87494.00
2024-03-25T02:21:07.497Z,87495.00
2024-03-25T02:22:07.498Z,87494.00
2024-03-25T02:23:07.521Z,87497.00
2024-03-25T02:24:07.524Z,87496.00
2024-03-25T02:25:07.511Z,87496.00
2024-03-25T02:26:07.503Z,87496.00
2024-03-25T02:27:07.509Z,87496.00
2024-03-25T02:28:07.518Z,87495.00
2024-03-25T02:29:07.527Z,87494.00
2024-03-25T02:30:07.541Z,87493.00
2024-03-25T02:31:07.517Z,87492.00
2024-03-25T02:32:07.533Z,87493.00
2024-03-25T02:33:07.519Z,87495.00
2024-03-25T02:34:07.526Z,87494.00
2024-03-25T02:35:07.519Z,87493.00
2024-03-25T02:36:07.521Z,87494.00
2024-03-25T02:37:07.538Z,87492.00
2024-03-25T02:38:07.552Z,87490.00
2024-03-25T02:39:07.564Z,87492.00
2024-03-25T02:40:07.576Z,87491.00
2024-03-25T02:41:07.581Z,87489.00
2024-03-25T02:42:07.568Z,87489.00
2024-03-25T02:43:07.586Z,87488.00
2024-03-25T02:44:07.601Z,87490.00
2024-03-25T02:45:07.627Z,87487.00
2024-03-25T02:46:07.635Z,87488.00
2024-03-25T02:47:07.666Z,87490.00
2024-03-25T02:48:07.679Z,87490.00
2024-03-25T02:49:07.709Z,87492.00
2024-03-25T02:50:07.716Z,87493.00
2024-03-25T02:51:07.718Z,87495.00
2024-03-25T02:52:07.735Z,87494.00
2024-03-25T02:53:07.765Z,87494.00
2024-03-25T02:54:07.786Z,87495.00
2024-03-25T02:55:07.805Z,87497.00
2024-03-25T02:56:07.816Z,87496.00
2024-03-25T02:57:07.846Z,87498.00
2024-03-25T02:58:07.890Z,87498.00
2024-03-25T02:59:07.936Z,87500.00
2024-03-25T03:00:07.962Z,87499.00
2024-03-25T03:01:07.923Z,87500.00
2024-03-25T03:02:07.951Z,87500.00
2024-03-25T03:03:07.954Z,87500.00
2024-03-25T03:04:07.941Z,87501.00
2024-03-25T03:05:07.960Z,87502.00
2024-03-25T03:06:07.946Z,87501.00
2024-03-25T03:07:07.957Z,87499.00
2024-03-25T03:08:07.943Z,87501.00
2024-03-25T03:09:07.955Z,87501.00
2024-03-25T03:10:07.946Z,87502.00
2024-03-25T03:11:07.964Z,87504.00
2024-03-25T03:12:07.958Z,87503.00
2024-03-25T03:13:07.960Z,87504.00
2024-03-25T03:14:07.969Z,87505.00
2024-03-25T03:15:07.978Z,87507.00
2024-03-25T03:16:07.962Z,87508.00
2024-03-25T03:17:07.968Z,87507.00
2024-03-25T03:18:07.971Z,87507.00
2024-03-25T03:19:08.003Z,87508.00
2024-03-25T03:20:07.976Z,87506.00
2024-03-25T03:21:07.979Z,87508.00
2024-03-25T03:22:07.973Z,87505.00
2024-03-25T03:23:07.969Z,87503.00
2024-03-25T03:24:08.001Z,87500.00
2024-03-25T03:25:07.979Z,87498.00
2024-03-25T03:26:07.986Z,87500.00
2024-03-25T03:27:08.021Z,87500.00
2024-03-25T03:28:07.988Z,87503.00
2024-03-25T03:29:07.997Z,87505.00
2024-03-25T03:30:07.994Z,87504.00
2024-03-25T03:31:08.009Z,87503.00
2024-03-25T03:32:08.001Z,87501.00
2024-03-25T03:33:08.010Z,87500.00
2024-03-25T03:34:08.017Z,87501.00
2024-03-25T03:35:08.023Z,87501.00
2024-03-25T03:36:08.017Z,87502.00
2024-03-25T03:37:08.006Z,87501.00
2024-03-25T03:38:08.004Z,87502.00
2024-03-25T03:39:08.032Z,87501.00
2024-03-25T03:40:08.008Z,87501.00
2024-03-25T03:41:08.013Z,87499.00
2024-03-25T03:42:08.028Z,87502.00
2024-03-25T03:43:08.032Z,87503.00
2024-03-25T03:44:08.017Z,87502.00
2024-03-25T03:45:08.029Z,87502.00
2024-03-25T03:46:08.018Z,87498.00
2024-03-25T03:47:08.031Z,87498.00
2024-03-25T03:48:08.030Z,87501.00
2024-03-25T03:49:08.041Z,87499.00
2024-03-25T03:50:08.041Z,87500.00
2024-03-25T03:51:08.605Z,87499.00
2024-03-25T03:52:08.040Z,87500.00
2024-03-25T03:53:08.049Z,87500.00
2024-03-25T03:54:08.056Z,87500.00
2024-03-25T03:55:08.048Z,87501.00
2024-03-25T03:56:08.050Z,87503.00
2024-03-25T03:57:08.053Z,87500.00
2024-03-25T03:58:08.051Z,87504.00
2024-03-25T03:59:08.058Z,87501.00
2024-03-25T04:00:08.051Z,87500.00
2024-03-25T04:01:08.079Z,87501.00
2024-03-25T04:02:08.081Z,87501.00
2024-03-25T04:03:08.065Z,87500.00
2024-03-25T04:04:08.095Z,87502.00
2024-03-25T04:05:08.056Z,87503.00
2024-03-25T04:06:08.064Z,87501.00
2024-03-25T04:07:08.064Z,87502.00
2024-03-25T04:08:08.075Z,87501.00
2024-03-25T04:09:08.117Z,87502.00
2024-03-25T04:10:08.118Z,87501.00
2024-03-25T04:11:08.135Z,87501.00
2024-03-25T04:12:08.133Z,87504.00
2024-03-25T04:13:08.163Z,87503.00
2024-03-25T04:14:08.148Z,87503.00
2024-03-25T04:15:08.309Z,87502.00
2024-03-25T04:16:08.160Z,87502.00
2024-03-25T04:17:08.169Z,87501.00
2024-03-25T04:18:08.212Z,87501.00
2024-03-25T04:19:08.198Z,87501.00
2024-03-25T04:20:08.275Z,87502.00
2024-03-25T04:21:08.234Z,87500.00
2024-03-25T04:22:08.236Z,87501.00
2024-03-25T04:23:08.248Z,87501.00
2024-03-25T04:24:08.260Z,87502.00
2024-03-25T04:25:08.267Z,87502.00
2024-03-25T04:26:08.272Z,87500.00
2024-03-25T04:27:08.275Z,87503.00
2024-03-25T04:28:08.284Z,87503.00
2024-03-25T04:29:08.293Z,87501.00
2024-03-25T04:30:08.297Z,87501.00
2024-03-25T04:31:08.319Z,87502.00
2024-03-25T04:32:08.331Z,87504.00
2024-03-25T04:33:08.360Z,87501.00
2024-03-25T04:34:08.384Z,87503.00
2024-03-25T04:35:08.360Z,87504.00
2024-03-25T04:36:08.380Z,87504.00
2024-03-25T04:37:08.390Z,87505.00
2024-03-25T04:38:08.423Z,87507.00
2024-03-25T04:39:08.413Z,87508.00
2024-03-25T04:40:08.433Z,87509.00
2024-03-25T04:41:08.430Z,87510.00
2024-03-25T04:42:08.450Z,87513.00
2024-03-25T04:43:15.768Z,87515.00
2024-03-25T04:44:15.754Z,87519.00
2024-03-25T04:45:15.764Z,87521.00
2024-03-25T04:46:15.755Z,87520.00
2024-03-25T04:47:15.749Z,87521.00
2024-03-25T04:48:15.768Z,87521.00
2024-03-25T04:49:15.761Z,87520.00
2024-03-25T04:50:15.755Z,87522.00
2024-03-25T04:51:15.761Z,87522.00
2024-03-25T04:52:15.754Z,87522.00
2024-03-25T04:53:15.761Z,87522.00
2024-03-25T04:54:15.767Z,87522.00
2024-03-25T04:55:15.772Z,87525.00
2024-03-25T04:56:15.772Z,87524.00
2024-03-25T04:57:15.768Z,87525.00
2024-03-25T04:58:15.772Z,87525.00
2024-03-25T04:59:15.795Z,87529.00
2024-03-25T05:00:15.780Z,87527.00
2024-03-25T05:01:15.773Z,87530.00
2024-03-25T05:02:15.780Z,87530.00
2024-03-25T05:03:15.783Z,87532.00
2024-03-25T05:04:15.786Z,87533.00
2024-03-25T05:05:15.782Z,87534.00
2024-03-25T05:06:15.789Z,87533.00
2024-03-25T05:07:15.803Z,87532.00
2024-03-25T05:08:15.791Z,87533.00
2024-03-25T05:09:15.818Z,87532.00
2024-03-25T05:10:15.792Z,87531.00
2024-03-25T05:11:15.791Z,87534.00
2024-03-25T05:12:15.796Z,87531.00
2024-03-25T05:13:15.813Z,87534.00
2024-03-25T05:14:15.806Z,87534.00
2024-03-25T05:15:15.818Z,87536.00
2024-03-25T05:16:15.815Z,87536.00
2024-03-25T05:17:15.817Z,87534.00
2024-03-25T05:18:15.903Z,87536.00
2024-03-25T05:19:15.806Z,87539.00
2024-03-25T05:20:15.810Z,87543.00
2024-03-25T05:21:15.810Z,87542.00
2024-03-25T05:22:15.809Z,87545.00
2024-03-25T05:23:15.820Z,87547.00
2024-03-25T05:24:15.821Z,87547.00
2024-03-25T05:25:15.822Z,87548.00
2024-03-25T05:26:15.813Z,87547.00
2024-03-25T05:27:15.847Z,87546.00
2024-03-25T05:28:15.836Z,87547.00
2024-03-25T05:29:15.840Z,87548.00
2024-03-25T05:30:15.825Z,87551.00
2024-03-25T05:31:15.835Z,87549.00
2024-03-25T05:32:15.827Z,87550.00
2024-03-25T05:33:15.826Z,87551.00
2024-03-25T05:34:15.832Z,87551.00
2024-03-25T05:35:15.842Z,87554.00
2024-03-25T05:36:15.830Z,87552.00
2024-03-25T05:37:15.837Z,87551.00
2024-03-25T05:38:15.833Z,87551.00
2024-03-25T05:39:15.846Z,87551.00
2024-03-25T05:40:15.843Z,87549.00
2024-03-25T05:41:15.839Z,87550.00
2024-03-25T05:42:15.840Z,87549.00
2024-03-25T05:43:15.840Z,87549.00
2024-03-25T05:44:15.846Z,87550.00
2024-03-25T05:45:15.853Z,87551.00
2024-03-25T05:46:15.876Z,87554.00
2024-03-25T05:47:15.862Z,87553.00
2024-03-25T05:48:15.857Z,87554.00
2024-03-25T05:49:15.870Z,87556.00
2024-03-25T05:50:15.846Z,87557.00
2024-03-25T05:51:15.855Z,87560.00
2024-03-25T05:52:15.857Z,87558.00
2024-03-25T05:53:15.860Z,87559.00
2024-03-25T05:54:15.863Z,87562.00
2024-03-25T05:55:15.891Z,87561.00
2024-03-25T05:56:15.871Z,87562.00
2024-03-25T05:57:15.864Z,87563.00
2024-03-25T05:58:15.877Z,87563.00
2024-03-25T05:59:15.897Z,87564.00
2024-03-25T06:00:15.879Z,87562.00
2024-03-25T06:01:15.887Z,87563.00
2024-03-25T06:02:15.876Z,87562.00
2024-03-25T06:03:15.876Z,87562.00
2024-03-25T06:04:15.887Z,87560.00
2024-03-25T06:05:15.881Z,87558.00
2024-03-25T06:06:15.889Z,87559.00
2024-03-25T06:07:15.900Z,87557.00
2024-03-25T06:08:15.888Z,87556.00
2024-03-25T06:09:15.897Z,87554.00
2024-03-25T06:10:15.902Z,87555.00
2024-03-25T06:11:15.914Z,87554.00
2024-03-25T06:12:15.912Z,87554.00
2024-03-25T06:13:15.898Z,87553.00
2024-03-25T06:14:15.925Z,87553.00
2024-03-25T06:15:15.902Z,87552.00
2024-03-25T06:16:15.902Z,87550.00
2024-03-25T06:17:15.907Z,87549.00
2024-03-25T06:18:15.925Z,87549.00
2024-03-25T06:19:15.929Z,87550.00
2024-03-25T06:20:15.917Z,87550.00
2024-03-25T06:21:15.920Z,87551.00
2024-03-25T06:22:15.920Z,87553.00
2024-03-25T06:23:15.923Z,87552.00
2024-03-25T06:24:15.952Z,87552.00
2024-03-25T06:25:15.920Z,87552.00
2024-03-25T06:26:15.920Z,87549.00
2024-03-25T06:27:15.928Z,87552.00
2024-03-25T06:28:15.921Z,87551.00
2024-03-25T06:29:15.942Z,87551.00
2024-03-25T06:30:15.927Z,87552.00
2024-03-25T06:31:15.928Z,87550.00
2024-03-25T06:32:15.930Z,87552.00
2024-03-25T06:33:15.931Z,87552.00
2024-03-25T06:34:15.949Z,87550.00
2024-03-25T06:35:15.964Z,87551.00
2024-03-25T06:36:15.943Z,87548.00
2024-03-25T06:37:15.944Z,87547.00
2024-03-25T06:38:15.944Z,87545.00
2024-03-25T06:39:15.948Z,87544.00
2024-03-25T06:40:15.951Z,87541.00
2024-03-25T06:41:15.947Z,87542.00
2024-03-25T06:42:15.946Z,87539.00
2024-03-25T06:43:15.957Z,87540.00
2024-03-25T06:44:15.974Z,87539.00
2024-03-25T06:45:15.976Z,87540.00
2024-03-25T06:46:15.993Z,87538.00
2024-03-25T06:47:15.999Z,87537.00
2024-03-25T06:48:16.022Z,87536.00
2024-03-25T06:49:16.039Z,87535.00
2024-03-25T06:50:16.032Z,87537.00
2024-03-25T06:51:16.061Z,87537.00
2024-03-25T06:52:16.058Z,87538.00
2024-03-25T06:53:16.057Z,87536.00
2024-03-25T06:54:16.067Z,87536.00
2024-03-25T06:55:16.073Z,87535.00
2024-03-25T06:56:16.082Z,87535.00
2024-03-25T06:57:16.083Z,87531.00
2024-03-25T06:58:16.104Z,87530.00
2024-03-25T06:59:16.119Z,87529.00
2024-03-25T07:00:16.095Z,87528.00
2024-03-25T07:01:16.113Z,87528.00
2024-03-25T07:02:16.118Z,87527.00
2024-03-25T07:03:16.140Z,87527.00
2024-03-25T07:04:16.145Z,87528.00
2024-03-25T07:05:16.133Z,87528.00
2024-03-25T07:06:16.145Z,87529.00
2024-03-25T07:07:16.155Z,87532.00
2024-03-25T07:08:16.156Z,87534.00
2024-03-25T07:09:16.161Z,87534.00
2024-03-25T07:10:16.186Z,87534.00
2024-03-25T07:11:16.175Z,87537.00
2024-03-25T07:12:16.195Z,87539.00
2024-03-25T07:13:16.213Z,87539.00
2024-03-25T07:14:16.194Z,87541.00
2024-03-25T07:15:16.208Z,87541.00
2024-03-25T07:16:16.196Z,87545.00
2024-03-25T07:17:16.201Z,87547.00
2024-03-25T07:18:16.207Z,87549.00
2024-03-25T07:19:16.234Z,87552.00
2024-03-25T07:20:16.211Z,87550.00
2024-03-25T07:21:16.223Z,87550.00
2024-03-25T07:22:16.201Z,87548.00
2024-03-25T07:23:16.266Z,87548.00
2024-03-25T07:24:16.363Z,87547.00
2024-03-25T07:25:16.410Z,87548.00
2024-03-25T07:26:16.483Z,87549.00
2024-03-25T07:27:16.554Z,87549.00
2024-03-25T07:28:16.633Z,87549.00
2024-03-25T07:29:16.719Z,87549.00
2024-03-25T07:30:16.761Z,87547.00
2024-03-25T07:31:16.847Z,87548.00
2024-03-25T07:32:16.935Z,87546.00
2024-03-25T07:33:16.994Z,87544.00
2024-03-25T07:34:17.063Z,87546.00
2024-03-25T07:35:17.136Z,87545.00
2024-03-25T07:36:17.185Z,87543.00
2024-03-25T07:37:17.277Z,87541.00
2024-03-25T07:38:17.311Z,87539.00
2024-03-25T07:39:17.398Z,87538.00
2024-03-25T07:40:17.395Z,87538.00
2024-03-25T07:41:17.413Z,87533.00
2024-03-25T07:42:17.393Z,87532.00
2024-03-25T07:43:17.397Z,87530.00
2024-03-25T07:44:17.392Z,87528.00
2024-03-25T07:45:17.402Z,87527.00
2024-03-25T07:46:17.403Z,87527.00
2024-03-25T07:47:17.408Z,87524.00
2024-03-25T07:48:17.389Z,87523.00
2024-03-25T07:49:17.524Z,87523.00
2024-03-25T07:50:17.512Z,87520.00
2024-03-25T07:51:17.617Z,87522.00
2024-03-25T07:52:17.597Z,87523.00
2024-03-25T07:53:17.634Z,87523.00
2024-03-25T07:54:17.683Z,87521.00
2024-03-25T07:55:17.735Z,87518.00
2024-03-25T07:56:17.786Z,87517.00
2024-03-25T07:57:17.871Z,87518.00
2024-03-25T07:58:17.890Z,87516.00
2024-03-25T07:59:17.999Z,87515.00
2024-03-25T08:00:17.950Z,87515.00
2024-03-25T08:01:17.992Z,87513.00
2024-03-25T08:02:18.123Z,87512.00
2024-03-25T08:03:18.097Z,87513.00
2024-03-25T08:04:18.167Z,87511.00
2024-03-25T08:05:18.200Z,87509.00
2024-03-25T08:06:18.203Z,87508.00
2024-03-25T08:07:18.263Z,87507.00
2024-03-25T08:08:18.302Z,87504.00
2024-03-25T08:09:18.435Z,87504.00
2024-03-25T08:10:18.382Z,87501.00
2024-03-25T08:11:18.417Z,87500.00
2024-03-25T08:12:18.496Z,87497.00
2024-03-25T08:13:18.481Z,87494.00
2024-03-25T08:14:18.548Z,87493.00
2024-03-25T08:15:18.587Z,87491.00
2024-03-25T08:16:18.594Z,87492.00
2024-03-25T08:17:18.651Z,87492.00
2024-03-25T08:18:18.668Z,87491.00
2024-03-25T08:19:18.721Z,87490.00
2024-03-25T08:20:18.754Z,87488.00
2024-03-25T08:21:18.772Z,87490.00
2024-03-25T08:22:18.920Z,87490.00
2024-03-25T08:23:18.849Z,87491.00
2024-03-25T08:24:18.964Z,87493.00
2024-03-25T08:25:18.947Z,87496.00
2024-03-25T08:26:18.977Z,87496.00
2024-03-25T08:27:18.995Z,87497.00
2024-03-25T08:28:19.024Z,87497.00
2024-03-25T08:29:19.107Z,87495.00
2024-03-25T08:30:19.093Z,87496.00
2024-03-25T08:31:19.203Z,87493.00
2024-03-25T08:32:19.199Z,87494.00
2024-03-25T08:33:19.332Z,87495.00
2024-03-25T08:34:19.276Z,87491.00
2024-03-25T08:35:19.312Z,87490.00
2024-03-25T08:36:19.306Z,87489.00
2024-03-25T08:37:19.350Z,87489.00
2024-03-25T08:38:19.398Z,87491.00
2024-03-25T08:39:19.431Z,87491.00
2024-03-25T08:40:19.459Z,87491.00
2024-03-25T08:41:19.531Z,87491.00
2024-03-25T08:42:19.514Z,87490.00
2024-03-25T08:43:19.617Z,87489.00
2024-03-25T08:44:19.584Z,87487.00
2024-03-25T08:45:19.639Z,87488.00
2024-03-25T08:46:19.701Z,87489.00
2024-03-25T08:47:19.662Z,87487.00
2024-03-25T08:48:19.697Z,87488.00
2024-03-25T08:49:19.708Z,87487.00
2024-03-25T08:50:19.754Z,87487.00
2024-03-25T08:51:19.805Z,87484.00
2024-03-25T08:52:19.798Z,87484.00
2024-03-25T08:53:19.836Z,87480.00
2024-03-25T08:54:19.876Z,87479.00
2024-03-25T08:55:19.881Z,87477.00
2024-03-25T08:56:19.902Z,87475.00
2024-03-25T08:57:19.936Z,87474.00
2024-03-25T08:58:19.956Z,87472.00
2024-03-25T08:59:20.063Z,87473.00
2024-03-25T09:00:20.171Z,87472.00
2024-03-25T09:01:20.038Z,87469.00
2024-03-25T09:02:20.093Z,87467.00
2024-03-25T09:03:20.077Z,87464.00
2024-03-25T09:04:27.506Z,87463.00
2024-03-25T09:05:21.110Z,87459.00
2024-03-25T09:06:20.110Z,87460.00
2024-03-25T09:07:20.104Z,87457.00
2024-03-25T09:08:20.112Z,87458.00
2024-03-25T09:09:20.123Z,87458.00
2024-03-25T09:10:20.120Z,87454.00
2024-03-25T09:11:20.118Z,87454.00
2024-03-25T09:12:20.117Z,87454.00
2024-03-25T09:13:20.154Z,87455.00
2024-03-25T09:14:20.142Z,87454.00
2024-03-25T09:15:20.161Z,87459.00
2024-03-25T09:16:20.142Z,87459.00
2024-03-25T09:17:20.138Z,87456.00
2024-03-25T09:18:20.155Z,87452.00
2024-03-25T09:19:20.925Z,87452.00
2024-03-25T09:20:20.176Z,87451.00
2024-03-25T09:21:20.134Z,87450.00
2024-03-25T09:22:20.136Z,87455.00
2024-03-25T09:23:20.165Z,87449.00
2024-03-25T09:24:20.162Z,87451.00
2024-03-25T09:25:20.139Z,87451.00
2024-03-25T09:26:20.150Z,87450.00
2024-03-25T09:27:20.140Z,87449.00
2024-03-25T09:28:20.162Z,87452.00
2024-03-25T09:29:20.158Z,87452.00
2024-03-25T09:30:20.213Z,87450.00
2024-03-25T09:31:20.149Z,87450.00
2024-03-25T09:32:20.167Z,87447.00
2024-03-25T09:33:20.172Z,87442.00
2024-03-25T09:34:20.153Z,87439.00
2024-03-25T09:35:20.163Z,87438.00
2024-03-25T09:36:20.162Z,87436.00
2024-03-25T09:37:20.163Z,87439.00
2024-03-25T09:38:20.262Z,87439.00
2024-03-25T09:39:20.268Z,87438.00
2024-03-25T09:40:20.179Z,87441.00
2024-03-25T09:41:20.186Z,87434.00
2024-03-25T09:42:20.170Z,87438.00
2024-03-25T09:43:20.186Z,87434.00
2024-03-25T09:44:20.178Z,87431.00
2024-03-25T09:45:20.218Z,87429.00
2024-03-25T09:46:20.238Z,87428.00
2024-03-25T09:47:20.187Z,87426.00
2024-03-25T09:48:20.184Z,87426.00
2024-03-25T09:49:20.178Z,87424.00
2024-03-25T09:50:20.365Z,87430.00
2024-03-25T09:51:20.259Z,87423.00
2024-03-25T09:52:20.195Z,87420.00
2024-03-25T09:53:20.216Z,87418.00
2024-03-25T09:54:20.218Z,87417.00
2024-03-25T09:55:20.203Z,87415.00
2024-03-25T09:56:20.206Z,87408.00
2024-03-25T09:57:20.200Z,87411.00
2024-03-25T09:58:20.206Z,87408.00
2024-03-25T09:59:20.210Z,87408.00
2024-03-25T10:00:20.229Z,87408.00
2024-03-25T10:01:20.212Z,87403.00
2024-03-25T10:02:20.229Z,87405.00
2024-03-25T10:03:20.208Z,87401.00
2024-03-25T10:04:20.226Z,87406.00
2024-03-25T10:05:20.229Z,87405.00
2024-03-25T10:06:20.219Z,87406.00
2024-03-25T10:07:20.257Z,87403.00
2024-03-25T10:08:20.224Z,87403.00
2024-03-25T10:09:20.223Z,87402.00
2024-03-25T10:10:20.237Z,87402.00
2024-03-25T10:11:20.269Z,87401.00
2024-03-25T10:12:20.229Z,87396.00
2024-03-25T10:13:20.262Z,87397.00
2024-03-25T10:14:20.232Z,87396.00
2024-03-25T10:15:20.277Z,87399.00
2024-03-25T10:16:20.234Z,87394.00
2024-03-25T10:17:20.248Z,87396.00
2024-03-25T10:18:20.241Z,87395.00
2024-03-25T10:19:20.235Z,87394.00
2024-03-25T10:20:20.260Z,87388.00
2024-03-25T10:21:20.248Z,87383.00
2024-03-25T10:22:20.287Z,87383.00
2024-03-25T10:23:20.385Z,87383.00
2024-03-25T10:24:20.298Z,87382.00
2024-03-25T10:25:20.288Z,87384.00
2024-03-25T10:26:20.259Z,87385.00
2024-03-25T10:27:20.256Z,87385.00
2024-03-25T10:28:20.268Z,87383.00
2024-03-25T10:29:20.282Z,87380.00
2024-03-25T10:30:20.278Z,87372.00
2024-03-25T10:31:20.254Z,87372.00
2024-03-25T10:32:20.335Z,87370.00
2024-03-25T10:33:20.284Z,87369.00
2024-03-25T10:34:20.284Z,87369.00
2024-03-25T10:35:20.376Z,87373.00
2024-03-25T10:36:20.307Z,87371.00
2024-03-25T10:37:20.275Z,87368.00
2024-03-25T10:38:20.294Z,87367.00
2024-03-25T10:39:20.273Z,87370.00
2024-03-25T10:40:20.288Z,87368.00
2024-03-25T10:41:20.283Z,87366.00
2024-03-25T10:42:20.300Z,87363.00
2024-03-25T10:43:20.293Z,87360.00
2024-03-25T10:44:20.295Z,87360.00
2024-03-25T10:45:20.366Z,87358.00
2024-03-25T10:46:20.336Z,87357.00
2024-03-25T10:47:21.577Z,87354.00
2024-03-25T10:48:20.418Z,87354.00
2024-03-25T10:49:20.311Z,87351.00
2024-03-25T10:50:20.416Z,87347.00
2024-03-25T10:51:20.309Z,87347.00
2024-03-25T10:52:20.315Z,87337.00
2024-03-25T10:53:21.540Z,87336.00
2024-03-25T10:54:20.305Z,87333.00
2024-03-25T10:55:20.313Z,87341.00
2024-03-25T10:56:20.326Z,87330.00
2024-03-25T10:57:20.334Z,87332.00
2024-03-25T10:58:20.357Z,87335.00
2024-03-25T10:59:22.598Z,87338.00
2024-03-25T11:00:20.366Z,87326.00
2024-03-25T11:01:20.375Z,87325.00
2024-03-25T11:02:20.400Z,87326.00
2024-03-25T11:03:20.486Z,87321.00
2024-03-25T11:04:20.468Z,87325.00
2024-03-25T11:05:21.275Z,87327.00
2024-03-25T11:06:20.499Z,87324.00
2024-03-25T11:07:20.497Z,87318.00
2024-03-25T11:08:20.552Z,87312.00
2024-03-25T11:09:20.519Z,87314.00
2024-03-25T11:10:20.570Z,87312.00
2024-03-25T11:11:20.521Z,87314.00
2024-03-25T11:12:20.514Z,87316.00
2024-03-25T11:13:20.549Z,87310.00
2024-03-25T11:14:20.746Z,87306.00
2024-03-25T11:15:20.584Z,87304.00
2024-03-25T11:16:20.532Z,87304.00
2024-03-25T11:17:20.535Z,87309.00
2024-03-25T11:18:20.567Z,87308.00
2024-03-25T11:19:20.667Z,87302.00
2024-03-25T11:20:20.647Z,87299.00
2024-03-25T11:21:20.529Z,87296.00
2024-03-25T11:22:20.537Z,87295.00
2024-03-25T11:23:20.544Z,87291.00
2024-03-25T11:24:20.556Z,87296.00
2024-03-25T11:25:20.561Z,87290.00
2024-03-25T11:26:20.628Z,87291.00
2024-03-25T11:27:20.641Z,87285.00
2024-03-25T11:28:20.615Z,87286.00
2024-03-25T11:29:20.663Z,87284.00
2024-03-25T11:30:20.671Z,87287.00
2024-03-25T11:31:20.648Z,87284.00
2024-03-25T11:32:20.672Z,87285.00
2024-03-25T11:33:20.686Z,87285.00
2024-03-25T11:34:20.723Z,87281.00
2024-03-25T11:35:20.747Z,87280.00
2024-03-25T11:36:20.766Z,87278.00
2024-03-25T11:37:20.783Z,87273.00
2024-03-25T11:38:20.794Z,87279.00
2024-03-25T11:39:20.825Z,87276.00
2024-03-25T11:40:20.836Z,87268.00
2024-03-25T11:41:20.862Z,87264.00
2024-03-25T11:42:20.872Z,87262.00
2024-03-25T11:43:20.932Z,87270.00
2024-03-25T11:44:20.929Z,87269.00